sensor_id;sensor_type;location;lat;lon;timestamp;P1;durP1;ratioP1;P2;durP2;ratioP2
19907;SDS011;10116;53.112;7.356;2023-02-28T00:02:17;2.87;;;2.67;;
19907;SDS011;10116;53.112;7.356;2023-02-28T00:04:42;2.50;;;2.30;;
19907;SDS011;10116;53.112;7.356;2023-02-28T00:07:08;2.80;;;2.40;;
19907;SDS011;10116;53.112;7.356;2023-02-28T00:09:34;2.90;;;2.33;;
19907;SDS011;10116;53.112;7.356;2023-02-28T00:12:00;3.97;;;2.50;;
19907;SDS011;10116;53.112;7.356;2023-02-28T00:14:29;2.27;;;2.17;;
19907;SDS011;10116;53.112;7.356;2023-02-28T00:16:55;2.10;;;2.00;;
19907;SDS011;10116;53.112;7.356;2023-02-28T00:19:20;2.37;;;2.17;;
19907;SDS011;10116;53.112;7.356;2023-02-28T00:21:46;2.03;;;1.90;;
19907;SDS011;10116;53.112;7.356;2023-02-28T00:24:12;2.00;;;1.80;;
19907;SDS011;10116;53.112;7.356;2023-02-28T00:26:37;2.40;;;2.20;;
19907;SDS011;10116;53.112;7.356;2023-02-28T00:29:03;1.90;;;1.80;;
19907;SDS011;10116;53.112;7.356;2023-02-28T00:31:28;2.03;;;1.90;;
19907;SDS011;10116;53.112;7.356;2023-02-28T00:33:54;1.80;;;1.70;;
19907;SDS011;10116;53.112;7.356;2023-02-28T00:36:19;2.57;;;2.07;;
19907;SDS011;10116;53.112;7.356;2023-02-28T00:38:45;2.07;;;1.97;;
19907;SDS011;10116;53.112;7.356;2023-02-28T00:41:11;2.00;;;1.87;;
19907;SDS011;10116;53.112;7.356;2023-02-28T00:43:37;2.33;;;2.23;;
19907;SDS011;10116;53.112;7.356;2023-02-28T00:46:04;2.73;;;1.80;;
19907;SDS011;10116;53.112;7.356;2023-02-28T00:48:30;2.33;;;1.67;;
19907;SDS011;10116;53.112;7.356;2023-02-28T00:50:56;1.80;;;1.70;;
19907;SDS011;10116;53.112;7.356;2023-02-28T00:53:21;3.03;;;1.77;;
19907;SDS011;10116;53.112;7.356;2023-02-28T00:55:48;1.50;;;1.40;;
19907;SDS011;10116;53.112;7.356;2023-02-28T00:58:14;1.90;;;1.73;;
19907;SDS011;10116;53.112;7.356;2023-02-28T01:00:40;1.53;;;1.43;;
19907;SDS011;10116;53.112;7.356;2023-02-28T01:03:05;1.90;;;1.80;;
19907;SDS011;10116;53.112;7.356;2023-02-28T01:05:31;1.80;;;1.70;;
19907;SDS011;10116;53.112;7.356;2023-02-28T01:07:56;1.80;;;1.70;;
19907;SDS011;10116;53.112;7.356;2023-02-28T01:10:22;1.37;;;1.30;;
19907;SDS011;10116;53.112;7.356;2023-02-28T01:12:47;1.40;;;1.30;;
19907;SDS011;10116;53.112;7.356;2023-02-28T01:15:13;1.40;;;1.30;;
19907;SDS011;10116;53.112;7.356;2023-02-28T01:17:39;1.40;;;1.30;;
19907;SDS011;10116;53.112;7.356;2023-02-28T01:20:04;1.63;;;1.63;;
19907;SDS011;10116;53.112;7.356;2023-02-28T01:22:30;1.60;;;1.50;;
19907;SDS011;10116;53.112;7.356;2023-02-28T01:24:56;1.43;;;1.33;;
19907;SDS011;10116;53.112;7.356;2023-02-28T01:27:21;1.70;;;1.60;;
19907;SDS011;10116;53.112;7.356;2023-02-28T01:29:47;1.50;;;1.50;;
19907;SDS011;10116;53.112;7.356;2023-02-28T01:32:13;1.50;;;1.40;;
19907;SDS011;10116;53.112;7.356;2023-02-28T01:34:38;1.73;;;1.40;;
19907;SDS011;10116;53.112;7.356;2023-02-28T01:37:04;1.43;;;1.33;;
19907;SDS011;10116;53.112;7.356;2023-02-28T01:39:29;1.80;;;1.70;;
19907;SDS011;10116;53.112;7.356;2023-02-28T01:41:55;2.80;;;1.30;;
19907;SDS011;10116;53.112;7.356;2023-02-28T01:47:25;1.30;;;1.20;;
19907;SDS011;10116;53.112;7.356;2023-02-28T01:49:55;1.40;;;1.30;;
19907;SDS011;10116;53.112;7.356;2023-02-28T01:52:21;1.30;;;1.20;;
19907;SDS011;10116;53.112;7.356;2023-02-28T01:54:51;1.10;;;0.97;;
19907;SDS011;10116;53.112;7.356;2023-02-28T01:57:19;1.20;;;1.20;;
19907;SDS011;10116;53.112;7.356;2023-02-28T01:59:49;1.10;;;1.00;;
19907;SDS011;10116;53.112;7.356;2023-02-28T02:02:20;1.33;;;1.20;;
19907;SDS011;10116;53.112;7.356;2023-02-28T02:04:54;1.60;;;1.30;;
19907;SDS011;10116;53.112;7.356;2023-02-28T02:07:45;0.97;;;0.97;;
19907;SDS011;10116;53.112;7.356;2023-02-28T02:10:13;1.83;;;1.30;;
19907;SDS011;10116;53.112;7.356;2023-02-28T02:15:14;1.80;;;1.20;;
19907;SDS011;10116;53.112;7.356;2023-02-28T02:17:45;1.40;;;1.20;;
19907;SDS011;10116;53.112;7.356;2023-02-28T02:20:25;5.60;;;1.10;;
19907;SDS011;10116;53.112;7.356;2023-02-28T02:28:46;1.53;;;1.30;;
19907;SDS011;10116;53.112;7.356;2023-02-28T02:39:59;1.00;;;0.83;;
19907;SDS011;10116;53.112;7.356;2023-02-28T02:42:31;1.20;;;0.87;;
19907;SDS011;10116;53.112;7.356;2023-02-28T02:45:32;1.10;;;1.00;;
19907;SDS011;10116;53.112;7.356;2023-02-28T02:48:06;1.20;;;1.10;;
19907;SDS011;10116;53.112;7.356;2023-02-28T02:50:38;0.90;;;0.90;;
19907;SDS011;10116;53.112;7.356;2023-02-28T02:53:09;0.87;;;0.87;;
19907;SDS011;10116;53.112;7.356;2023-02-28T02:55:38;0.87;;;0.87;;
19907;SDS011;10116;53.112;7.356;2023-02-28T02:58:14;0.73;;;0.73;;
19907;SDS011;10116;53.112;7.356;2023-02-28T03:00:43;0.80;;;0.80;;
19907;SDS011;10116;53.112;7.356;2023-02-28T03:03:13;0.90;;;0.90;;
19907;SDS011;10116;53.112;7.356;2023-02-28T03:05:44;0.80;;;0.80;;
19907;SDS011;10116;53.112;7.356;2023-02-28T03:08:15;0.80;;;0.80;;
19907;SDS011;10116;53.112;7.356;2023-02-28T03:10:43;0.90;;;0.90;;
19907;SDS011;10116;53.112;7.356;2023-02-28T03:13:12;0.80;;;0.80;;
19907;SDS011;10116;53.112;7.356;2023-02-28T03:15:52;0.90;;;0.90;;
19907;SDS011;10116;53.112;7.356;2023-02-28T03:22:14;0.80;;;0.80;;
19907;SDS011;10116;53.112;7.356;2023-02-28T03:24:49;0.90;;;0.90;;
19907;SDS011;10116;53.112;7.356;2023-02-28T03:30:03;0.90;;;0.90;;
19907;SDS011;10116;53.112;7.356;2023-02-28T03:32:47;1.90;;;0.83;;
19907;SDS011;10116;53.112;7.356;2023-02-28T03:35:21;1.00;;;0.87;;
19907;SDS011;10116;53.112;7.356;2023-02-28T03:37:50;0.80;;;0.80;;
19907;SDS011;10116;53.112;7.356;2023-02-28T03:40:21;0.97;;;0.97;;
19907;SDS011;10116;53.112;7.356;2023-02-28T03:42:51;1.03;;;1.03;;
19907;SDS011;10116;53.112;7.356;2023-02-28T03:45:23;1.00;;;1.00;;
19907;SDS011;10116;53.112;7.356;2023-02-28T03:47:54;1.00;;;1.00;;
19907;SDS011;10116;53.112;7.356;2023-02-28T03:50:27;0.80;;;0.80;;
19907;SDS011;10116;53.112;7.356;2023-02-28T03:53:04;1.17;;;0.80;;
19907;SDS011;10116;53.112;7.356;2023-02-28T03:55:39;0.70;;;0.70;;
19907;SDS011;10116;53.112;7.356;2023-02-28T04:00:52;1.17;;;0.80;;
19907;SDS011;10116;53.112;7.356;2023-02-28T04:03:33;1.00;;;1.00;;
19907;SDS011;10116;53.112;7.356;2023-02-28T04:06:03;0.93;;;0.93;;
19907;SDS011;10116;53.112;7.356;2023-02-28T04:08:32;0.90;;;0.90;;
19907;SDS011;10116;53.112;7.356;2023-02-28T04:11:01;0.90;;;0.90;;
19907;SDS011;10116;53.112;7.356;2023-02-28T04:13:36;2.60;;;1.03;;
19907;SDS011;10116;53.112;7.356;2023-02-28T04:16:02;0.87;;;0.87;;
19907;SDS011;10116;53.112;7.356;2023-02-28T04:18:36;1.20;;;1.10;;
19907;SDS011;10116;53.112;7.356;2023-02-28T04:21:06;1.00;;;0.90;;
19907;SDS011;10116;53.112;7.356;2023-02-28T04:23:32;0.70;;;0.70;;
19907;SDS011;10116;53.112;7.356;2023-02-28T04:25:57;1.10;;;0.73;;
19907;SDS011;10116;53.112;7.356;2023-02-28T04:28:23;0.80;;;0.80;;
19907;SDS011;10116;53.112;7.356;2023-02-28T04:30:56;0.67;;;0.67;;
19907;SDS011;10116;53.112;7.356;2023-02-28T04:33:26;0.83;;;0.83;;
19907;SDS011;10116;53.112;7.356;2023-02-28T04:35:58;1.13;;;0.67;;
19907;SDS011;10116;53.112;7.356;2023-02-28T04:38:25;0.60;;;0.60;;
19907;SDS011;10116;53.112;7.356;2023-02-28T04:40:50;1.13;;;1.00;;
19907;SDS011;10116;53.112;7.356;2023-02-28T04:43:16;0.80;;;0.80;;
19907;SDS011;10116;53.112;7.356;2023-02-28T04:45:42;0.90;;;0.70;;
19907;SDS011;10116;53.112;7.356;2023-02-28T04:48:07;0.80;;;0.73;;
19907;SDS011;10116;53.112;7.356;2023-02-28T04:50:33;0.80;;;0.80;;
19907;SDS011;10116;53.112;7.356;2023-02-28T04:52:59;0.90;;;0.80;;
19907;SDS011;10116;53.112;7.356;2023-02-28T04:55:24;0.73;;;0.73;;
19907;SDS011;10116;53.112;7.356;2023-02-28T04:57:50;0.90;;;0.90;;
19907;SDS011;10116;53.112;7.356;2023-02-28T05:00:15;0.73;;;0.73;;
19907;SDS011;10116;53.112;7.356;2023-02-28T05:02:42;0.60;;;0.60;;
19907;SDS011;10116;53.112;7.356;2023-02-28T05:05:08;0.77;;;0.77;;
19907;SDS011;10116;53.112;7.356;2023-02-28T05:07:33;1.07;;;0.97;;
19907;SDS011;10116;53.112;7.356;2023-02-28T05:09:59;2.50;;;0.80;;
19907;SDS011;10116;53.112;7.356;2023-02-28T05:12:25;0.70;;;0.70;;
19907;SDS011;10116;53.112;7.356;2023-02-28T05:14:50;0.77;;;0.77;;
19907;SDS011;10116;53.112;7.356;2023-02-28T05:17:16;0.63;;;0.63;;
19907;SDS011;10116;53.112;7.356;2023-02-28T05:19:41;0.73;;;0.73;;
19907;SDS011;10116;53.112;7.356;2023-02-28T05:22:12;1.10;;;1.00;;
19907;SDS011;10116;53.112;7.356;2023-02-28T05:24:40;0.70;;;0.70;;
19907;SDS011;10116;53.112;7.356;2023-02-28T05:27:07;1.23;;;0.90;;
19907;SDS011;10116;53.112;7.356;2023-02-28T05:29:33;0.60;;;0.60;;
19907;SDS011;10116;53.112;7.356;2023-02-28T05:32:11;0.80;;;0.80;;
19907;SDS011;10116;53.112;7.356;2023-02-28T05:34:37;1.07;;;0.80;;
19907;SDS011;10116;53.112;7.356;2023-02-28T05:37:04;0.70;;;0.70;;
19907;SDS011;10116;53.112;7.356;2023-02-28T05:39:31;0.70;;;0.60;;
19907;SDS011;10116;53.112;7.356;2023-02-28T05:41:58;0.83;;;0.73;;
19907;SDS011;10116;53.112;7.356;2023-02-28T05:44:23;1.23;;;1.13;;
19907;SDS011;10116;53.112;7.356;2023-02-28T05:46:49;0.50;;;0.50;;
19907;SDS011;10116;53.112;7.356;2023-02-28T05:49:15;0.70;;;0.70;;
19907;SDS011;10116;53.112;7.356;2023-02-28T05:51:41;0.90;;;0.90;;
19907;SDS011;10116;53.112;7.356;2023-02-28T05:54:06;0.70;;;0.70;;
19907;SDS011;10116;53.112;7.356;2023-02-28T05:56:32;0.90;;;0.90;;
19907;SDS011;10116;53.112;7.356;2023-02-28T05:59:00;1.00;;;0.90;;
19907;SDS011;10116;53.112;7.356;2023-02-28T06:04:04;0.70;;;0.70;;
19907;SDS011;10116;53.112;7.356;2023-02-28T06:06:32;0.70;;;0.70;;
19907;SDS011;10116;53.112;7.356;2023-02-28T06:09:02;0.90;;;0.90;;
19907;SDS011;10116;53.112;7.356;2023-02-28T06:11:31;0.87;;;0.60;;
19907;SDS011;10116;53.112;7.356;2023-02-28T06:13:57;0.70;;;0.70;;
19907;SDS011;10116;53.112;7.356;2023-02-28T06:16:25;0.90;;;0.90;;
19907;SDS011;10116;53.112;7.356;2023-02-28T06:18:52;0.90;;;0.90;;
19907;SDS011;10116;53.112;7.356;2023-02-28T06:21:20;0.70;;;0.70;;
19907;SDS011;10116;53.112;7.356;2023-02-28T06:23:46;1.30;;;1.20;;
19907;SDS011;10116;53.112;7.356;2023-02-28T06:26:11;1.33;;;1.33;;
19907;SDS011;10116;53.112;7.356;2023-02-28T06:28:37;1.83;;;1.73;;
19907;SDS011;10116;53.112;7.356;2023-02-28T06:31:10;1.70;;;1.60;;
19907;SDS011;10116;53.112;7.356;2023-02-28T06:33:37;1.20;;;1.17;;
19907;SDS011;10116;53.112;7.356;2023-02-28T06:36:04;1.23;;;1.13;;
19907;SDS011;10116;53.112;7.356;2023-02-28T06:38:31;1.50;;;1.40;;
19907;SDS011;10116;53.112;7.356;2023-02-28T06:40:58;2.30;;;1.10;;
19907;SDS011;10116;53.112;7.356;2023-02-28T06:43:24;1.20;;;1.20;;
19907;SDS011;10116;53.112;7.356;2023-02-28T06:45:56;1.43;;;1.33;;
19907;SDS011;10116;53.112;7.356;2023-02-28T06:48:23;1.57;;;1.47;;
19907;SDS011;10116;53.112;7.356;2023-02-28T06:50:50;1.40;;;1.30;;
19907;SDS011;10116;53.112;7.356;2023-02-28T06:53:16;1.57;;;1.47;;
19907;SDS011;10116;53.112;7.356;2023-02-28T06:55:42;2.07;;;1.97;;
19907;SDS011;10116;53.112;7.356;2023-02-28T06:58:07;2.00;;;1.90;;
19907;SDS011;10116;53.112;7.356;2023-02-28T07:00:40;1.83;;;1.70;;
19907;SDS011;10116;53.112;7.356;2023-02-28T07:03:10;1.60;;;1.50;;
19907;SDS011;10116;53.112;7.356;2023-02-28T07:05:37;2.27;;;2.17;;
19907;SDS011;10116;53.112;7.356;2023-02-28T07:08:03;1.90;;;1.80;;
19907;SDS011;10116;53.112;7.356;2023-02-28T07:10:30;6.80;;;1.60;;
19907;SDS011;10116;53.112;7.356;2023-02-28T07:12:57;2.53;;;2.33;;
19907;SDS011;10116;53.112;7.356;2023-02-28T07:15:23;2.37;;;2.17;;
19907;SDS011;10116;53.112;7.356;2023-02-28T07:17:49;3.30;;;2.17;;
19907;SDS011;10116;53.112;7.356;2023-02-28T07:20:15;2.10;;;2.00;;
19907;SDS011;10116;53.112;7.356;2023-02-28T07:22:41;2.00;;;1.90;;
19907;SDS011;10116;53.112;7.356;2023-02-28T07:25:06;3.90;;;2.47;;
19907;SDS011;10116;53.112;7.356;2023-02-28T07:27:33;4.23;;;2.03;;
19907;SDS011;10116;53.112;7.356;2023-02-28T07:29:59;1.90;;;1.80;;
19907;SDS011;10116;53.112;7.356;2023-02-28T07:32:28;2.50;;;2.30;;
19907;SDS011;10116;53.112;7.356;2023-02-28T07:34:54;1.83;;;1.73;;
19907;SDS011;10116;53.112;7.356;2023-02-28T07:37:20;1.90;;;1.80;;
19907;SDS011;10116;53.112;7.356;2023-02-28T07:39:45;1.90;;;1.80;;
19907;SDS011;10116;53.112;7.356;2023-02-28T07:42:11;1.73;;;1.60;;
19907;SDS011;10116;53.112;7.356;2023-02-28T07:44:40;2.47;;;1.60;;
19907;SDS011;10116;53.112;7.356;2023-02-28T07:47:08;1.70;;;1.60;;
19907;SDS011;10116;53.112;7.356;2023-02-28T07:49:36;1.60;;;1.50;;
19907;SDS011;10116;53.112;7.356;2023-02-28T07:52:03;1.70;;;1.60;;
19907;SDS011;10116;53.112;7.356;2023-02-28T07:54:30;1.63;;;1.53;;
19907;SDS011;10116;53.112;7.356;2023-02-28T07:56:55;2.33;;;1.70;;
19907;SDS011;10116;53.112;7.356;2023-02-28T07:59:21;1.60;;;1.50;;
19907;SDS011;10116;53.112;7.356;2023-02-28T08:01:47;1.30;;;1.30;;
19907;SDS011;10116;53.112;7.356;2023-02-28T08:04:15;1.50;;;1.40;;
19907;SDS011;10116;53.112;7.356;2023-02-28T08:06:43;2.37;;;1.53;;
19907;SDS011;10116;53.112;7.356;2023-02-28T08:09:09;1.70;;;1.60;;
19907;SDS011;10116;53.112;7.356;2023-02-28T08:11:35;1.50;;;1.50;;
19907;SDS011;10116;53.112;7.356;2023-02-28T08:14:01;1.83;;;1.57;;
19907;SDS011;10116;53.112;7.356;2023-02-28T08:16:27;1.33;;;1.33;;
19907;SDS011;10116;53.112;7.356;2023-02-28T08:18:53;1.70;;;1.60;;
19907;SDS011;10116;53.112;7.356;2023-02-28T08:21:19;1.67;;;1.57;;
19907;SDS011;10116;53.112;7.356;2023-02-28T08:23:47;1.60;;;1.50;;
19907;SDS011;10116;53.112;7.356;2023-02-28T08:26:13;1.40;;;1.30;;
19907;SDS011;10116;53.112;7.356;2023-02-28T08:28:39;1.60;;;1.50;;
19907;SDS011;10116;53.112;7.356;2023-02-28T08:31:09;1.60;;;1.50;;
19907;SDS011;10116;53.112;7.356;2023-02-28T08:33:35;3.30;;;1.23;;
19907;SDS011;10116;53.112;7.356;2023-02-28T08:36:01;2.00;;;1.80;;
19907;SDS011;10116;53.112;7.356;2023-02-28T08:38:27;2.30;;;2.20;;
19907;SDS011;10116;53.112;7.356;2023-02-28T08:40:59;2.60;;;2.40;;
19907;SDS011;10116;53.112;7.356;2023-02-28T08:43:27;3.33;;;3.13;;
19907;SDS011;10116;53.112;7.356;2023-02-28T08:45:53;4.93;;;3.67;;
19907;SDS011;10116;53.112;7.356;2023-02-28T08:48:21;4.83;;;4.40;;
19907;SDS011;10116;53.112;7.356;2023-02-28T08:50:54;4.37;;;4.03;;
19907;SDS011;10116;53.112;7.356;2023-02-28T08:53:24;4.07;;;3.77;;
19907;SDS011;10116;53.112;7.356;2023-02-28T08:56:00;3.43;;;3.13;;
19907;SDS011;10116;53.112;7.356;2023-02-28T08:58:36;3.97;;;3.67;;
19907;SDS011;10116;53.112;7.356;2023-02-28T09:01:44;4.13;;;3.73;;
19907;SDS011;10116;53.112;7.356;2023-02-28T09:03:52;3.40;;;3.10;;
19907;SDS011;10116;53.112;7.356;2023-02-28T09:06:20;3.50;;;3.30;;
19907;SDS011;10116;53.112;7.356;2023-02-28T09:08:47;3.63;;;3.33;;
19907;SDS011;10116;53.112;7.356;2023-02-28T09:11:13;3.40;;;3.20;;
19907;SDS011;10116;53.112;7.356;2023-02-28T09:13:39;6.30;;;3.80;;
19907;SDS011;10116;53.112;7.356;2023-02-28T09:16:06;3.83;;;3.53;;
19907;SDS011;10116;53.112;7.356;2023-02-28T09:18:34;2.90;;;2.70;;
19907;SDS011;10116;53.112;7.356;2023-02-28T09:21:02;2.93;;;2.73;;
19907;SDS011;10116;53.112;7.356;2023-02-28T09:23:29;3.83;;;3.20;;
19907;SDS011;10116;53.112;7.356;2023-02-28T09:25:55;3.00;;;2.80;;
19907;SDS011;10116;53.112;7.356;2023-02-28T09:28:21;3.27;;;2.80;;
19907;SDS011;10116;53.112;7.356;2023-02-28T09:30:48;2.70;;;2.50;;
19907;SDS011;10116;53.112;7.356;2023-02-28T09:33:15;3.20;;;2.83;;
19907;SDS011;10116;53.112;7.356;2023-02-28T09:35:41;2.93;;;2.73;;
19907;SDS011;10116;53.112;7.356;2023-02-28T09:38:08;2.83;;;2.63;;
19907;SDS011;10116;53.112;7.356;2023-02-28T09:40:38;2.30;;;2.20;;
19907;SDS011;10116;53.112;7.356;2023-02-28T09:43:11;2.60;;;2.50;;
19907;SDS011;10116;53.112;7.356;2023-02-28T09:45:41;3.60;;;3.10;;
19907;SDS011;10116;53.112;7.356;2023-02-28T09:48:12;2.43;;;2.23;;
19907;SDS011;10116;53.112;7.356;2023-02-28T09:50:46;3.43;;;2.60;;
19907;SDS011;10116;53.112;7.356;2023-02-28T09:55:51;2.37;;;2.27;;
19907;SDS011;10116;53.112;7.356;2023-02-28T09:58:26;1.83;;;1.73;;
19907;SDS011;10116;53.112;7.356;2023-02-28T10:01:10;2.53;;;2.33;;
19907;SDS011;10116;53.112;7.356;2023-02-28T10:06:44;2.10;;;2.00;;
19907;SDS011;10116;53.112;7.356;2023-02-28T10:09:15;2.10;;;2.00;;
19907;SDS011;10116;53.112;7.356;2023-02-28T10:11:42;2.10;;;2.00;;
19907;SDS011;10116;53.112;7.356;2023-02-28T10:14:13;1.97;;;1.87;;
19907;SDS011;10116;53.112;7.356;2023-02-28T10:16:50;1.90;;;1.80;;
19907;SDS011;10116;53.112;7.356;2023-02-28T10:24:46;1.63;;;1.53;;
19907;SDS011;10116;53.112;7.356;2023-02-28T10:27:22;2.13;;;2.03;;
19907;SDS011;10116;53.112;7.356;2023-02-28T10:29:51;1.73;;;1.63;;
19907;SDS011;10116;53.112;7.356;2023-02-28T10:32:19;2.17;;;2.00;;
19907;SDS011;10116;53.112;7.356;2023-02-28T10:34:51;2.60;;;2.40;;
19907;SDS011;10116;53.112;7.356;2023-02-28T10:37:24;2.00;;;1.90;;
19907;SDS011;10116;53.112;7.356;2023-02-28T10:39:49;2.80;;;2.00;;
19907;SDS011;10116;53.112;7.356;2023-02-28T10:42:33;1.70;;;1.60;;
19907;SDS011;10116;53.112;7.356;2023-02-28T10:45:04;2.00;;;1.90;;
19907;SDS011;10116;53.112;7.356;2023-02-28T10:51:11;1.90;;;1.80;;
19907;SDS011;10116;53.112;7.356;2023-02-28T10:55:58;1.90;;;1.80;;
19907;SDS011;10116;53.112;7.356;2023-02-28T10:58:52;1.70;;;1.60;;
19907;SDS011;10116;53.112;7.356;2023-02-28T11:04:00;1.77;;;1.67;;
19907;SDS011;10116;53.112;7.356;2023-02-28T11:06:29;1.57;;;1.47;;
19907;SDS011;10116;53.112;7.356;2023-02-28T11:08:58;1.23;;;1.23;;
19907;SDS011;10116;53.112;7.356;2023-02-28T11:11:26;7.97;;;1.73;;
19907;SDS011;10116;53.112;7.356;2023-02-28T11:13:55;1.47;;;1.37;;
19907;SDS011;10116;53.112;7.356;2023-02-28T11:16:30;1.57;;;1.47;;
19907;SDS011;10116;53.112;7.356;2023-02-28T11:19:02;1.57;;;1.47;;
19907;SDS011;10116;53.112;7.356;2023-02-28T11:21:31;1.60;;;1.50;;
19907;SDS011;10116;53.112;7.356;2023-02-28T11:24:01;1.37;;;1.37;;
19907;SDS011;10116;53.112;7.356;2023-02-28T11:26:41;1.67;;;1.57;;
19907;SDS011;10116;53.112;7.356;2023-02-28T11:29:23;1.70;;;1.60;;
19907;SDS011;10116;53.112;7.356;2023-02-28T11:32:11;1.23;;;1.20;;
19907;SDS011;10116;53.112;7.356;2023-02-28T11:34:41;1.50;;;1.40;;
19907;SDS011;10116;53.112;7.356;2023-02-28T11:37:25;1.67;;;1.50;;
19907;SDS011;10116;53.112;7.356;2023-02-28T11:39:53;1.40;;;1.40;;
19907;SDS011;10116;53.112;7.356;2023-02-28T11:53:50;1.50;;;1.40;;
19907;SDS011;10116;53.112;7.356;2023-02-28T12:02:01;1.50;;;1.50;;
19907;SDS011;10116;53.112;7.356;2023-02-28T12:04:33;1.60;;;1.50;;
19907;SDS011;10116;53.112;7.356;2023-02-28T12:07:40;2.10;;;1.23;;
19907;SDS011;10116;53.112;7.356;2023-02-28T12:10:24;1.60;;;1.50;;
19907;SDS011;10116;53.112;7.356;2023-02-28T12:24:04;1.63;;;1.47;;
19907;SDS011;10116;53.112;7.356;2023-02-28T12:26:42;1.80;;;1.27;;
19907;SDS011;10116;53.112;7.356;2023-02-28T12:29:30;1.40;;;1.30;;
19907;SDS011;10116;53.112;7.356;2023-02-28T12:35:10;1.40;;;1.40;;
19907;SDS011;10116;53.112;7.356;2023-02-28T12:37:42;1.73;;;1.07;;
19907;SDS011;10116;53.112;7.356;2023-02-28T12:40:15;1.30;;;1.27;;
19907;SDS011;10116;53.112;7.356;2023-02-28T12:43:00;4.50;;;1.40;;
19907;SDS011;10116;53.112;7.356;2023-02-28T12:45:43;1.27;;;1.17;;
19907;SDS011;10116;53.112;7.356;2023-02-28T12:48:33;1.10;;;1.10;;
19907;SDS011;10116;53.112;7.356;2023-02-28T12:51:02;1.03;;;1.03;;
19907;SDS011;10116;53.112;7.356;2023-02-28T12:53:42;1.40;;;1.30;;
19907;SDS011;10116;53.112;7.356;2023-02-28T12:56:23;1.90;;;1.17;;
19907;SDS011;10116;53.112;7.356;2023-02-28T13:08:24;1.07;;;0.97;;
19907;SDS011;10116;53.112;7.356;2023-02-28T13:10:59;1.20;;;1.10;;
19907;SDS011;10116;53.112;7.356;2023-02-28T13:13:26;1.13;;;1.13;;
19907;SDS011;10116;53.112;7.356;2023-02-28T13:21:01;1.00;;;1.00;;
19907;SDS011;10116;53.112;7.356;2023-02-28T13:23:38;1.00;;;1.00;;
19907;SDS011;10116;53.112;7.356;2023-02-28T13:26:17;1.10;;;1.00;;
19907;SDS011;10116;53.112;7.356;2023-02-28T13:28:56;1.17;;;1.17;;
19907;SDS011;10116;53.112;7.356;2023-02-28T13:31:24;0.93;;;0.93;;
19907;SDS011;10116;53.112;7.356;2023-02-28T13:41:46;1.13;;;1.13;;
19907;SDS011;10116;53.112;7.356;2023-02-28T13:44:13;1.03;;;1.00;;
19907;SDS011;10116;53.112;7.356;2023-02-28T13:49:23;1.10;;;1.10;;
19907;SDS011;10116;53.112;7.356;2023-02-28T13:52:06;0.93;;;0.73;;
19907;SDS011;10116;53.112;7.356;2023-02-28T14:06:39;0.90;;;0.87;;
19907;SDS011;10116;53.112;7.356;2023-02-28T14:09:30;0.87;;;0.83;;
19907;SDS011;10116;53.112;7.356;2023-02-28T14:17:55;0.90;;;0.90;;
19907;SDS011;10116;53.112;7.356;2023-02-28T14:20:25;1.20;;;0.80;;
19907;SDS011;10116;53.112;7.356;2023-02-28T14:25:53;2.50;;;0.97;;
19907;SDS011;10116;53.112;7.356;2023-02-28T14:36:38;1.60;;;0.93;;
19907;SDS011;10116;53.112;7.356;2023-02-28T14:39:07;0.80;;;0.80;;
19907;SDS011;10116;53.112;7.356;2023-02-28T14:41:37;1.10;;;1.00;;
19907;SDS011;10116;53.112;7.356;2023-02-28T14:44:20;1.00;;;1.00;;
19907;SDS011;10116;53.112;7.356;2023-02-28T14:46:52;0.83;;;0.83;;
19907;SDS011;10116;53.112;7.356;2023-02-28T14:49:34;0.83;;;0.83;;
19907;SDS011;10116;53.112;7.356;2023-02-28T14:52:13;0.73;;;0.73;;
19907;SDS011;10116;53.112;7.356;2023-02-28T14:54:43;1.03;;;0.93;;
19907;SDS011;10116;53.112;7.356;2023-02-28T14:59:56;1.00;;;1.00;;
19907;SDS011;10116;53.112;7.356;2023-02-28T15:02:29;0.90;;;0.90;;
19907;SDS011;10116;53.112;7.356;2023-02-28T15:04:59;1.00;;;1.00;;
19907;SDS011;10116;53.112;7.356;2023-02-28T15:07:35;0.93;;;0.93;;
19907;SDS011;10116;53.112;7.356;2023-02-28T15:10:22;1.30;;;1.20;;
19907;SDS011;10116;53.112;7.356;2023-02-28T15:12:56;1.20;;;1.10;;
19907;SDS011;10116;53.112;7.356;2023-02-28T15:15:44;1.00;;;0.97;;
19907;SDS011;10116;53.112;7.356;2023-02-28T15:18:21;0.90;;;0.90;;
19907;SDS011;10116;53.112;7.356;2023-02-28T15:20:54;1.00;;;1.00;;
19907;SDS011;10116;53.112;7.356;2023-02-28T15:23:21;0.90;;;0.90;;
19907;SDS011;10116;53.112;7.356;2023-02-28T15:25:48;1.07;;;0.90;;
19907;SDS011;10116;53.112;7.356;2023-02-28T15:28:16;0.80;;;0.77;;
19907;SDS011;10116;53.112;7.356;2023-02-28T15:30:56;2.67;;;1.40;;
19907;SDS011;10116;53.112;7.356;2023-02-28T15:33:24;0.80;;;0.80;;
19907;SDS011;10116;53.112;7.356;2023-02-28T15:36:03;1.00;;;1.00;;
19907;SDS011;10116;53.112;7.356;2023-02-28T15:38:39;1.10;;;1.00;;
19907;SDS011;10116;53.112;7.356;2023-02-28T15:41:05;0.90;;;0.90;;
19907;SDS011;10116;53.112;7.356;2023-02-28T15:43:37;1.10;;;1.10;;
19907;SDS011;10116;53.112;7.356;2023-02-28T15:46:11;0.70;;;0.70;;
19907;SDS011;10116;53.112;7.356;2023-02-28T15:54:08;1.00;;;1.00;;
19907;SDS011;10116;53.112;7.356;2023-02-28T15:56:43;1.03;;;1.00;;
19907;SDS011;10116;53.112;7.356;2023-02-28T15:59:27;1.20;;;1.10;;
19907;SDS011;10116;53.112;7.356;2023-02-28T16:04:36;1.00;;;1.00;;
19907;SDS011;10116;53.112;7.356;2023-02-28T16:07:05;0.93;;;0.93;;
19907;SDS011;10116;53.112;7.356;2023-02-28T16:09:37;1.00;;;1.00;;
19907;SDS011;10116;53.112;7.356;2023-02-28T16:12:03;0.93;;;0.93;;
19907;SDS011;10116;53.112;7.356;2023-02-28T16:14:30;1.53;;;0.90;;
19907;SDS011;10116;53.112;7.356;2023-02-28T16:17:02;1.20;;;1.10;;
19907;SDS011;10116;53.112;7.356;2023-02-28T16:19:29;0.90;;;0.90;;
19907;SDS011;10116;53.112;7.356;2023-02-28T16:21:56;0.90;;;0.90;;
19907;SDS011;10116;53.112;7.356;2023-02-28T16:24:21;1.00;;;1.00;;
19907;SDS011;10116;53.112;7.356;2023-02-28T16:26:48;1.00;;;1.00;;
19907;SDS011;10116;53.112;7.356;2023-02-28T16:29:26;1.00;;;1.00;;
19907;SDS011;10116;53.112;7.356;2023-02-28T16:31:55;1.33;;;1.10;;
19907;SDS011;10116;53.112;7.356;2023-02-28T16:34:21;1.07;;;0.87;;
19907;SDS011;10116;53.112;7.356;2023-02-28T16:36:47;1.43;;;1.20;;
19907;SDS011;10116;53.112;7.356;2023-02-28T16:39:14;1.10;;;1.10;;
19907;SDS011;10116;53.112;7.356;2023-02-28T16:41:41;0.90;;;0.73;;
19907;SDS011;10116;53.112;7.356;2023-02-28T16:44:10;1.10;;;0.97;;
19907;SDS011;10116;53.112;7.356;2023-02-28T16:46:48;1.87;;;0.70;;
19907;SDS011;10116;53.112;7.356;2023-02-28T16:49:14;1.10;;;1.00;;
19907;SDS011;10116;53.112;7.356;2023-02-28T16:51:40;1.07;;;0.90;;
19907;SDS011;10116;53.112;7.356;2023-02-28T16:54:05;1.17;;;1.17;;
19907;SDS011;10116;53.112;7.356;2023-02-28T16:56:31;4.20;;;1.40;;
19907;SDS011;10116;53.112;7.356;2023-02-28T16:59:01;1.50;;;1.40;;
19907;SDS011;10116;53.112;7.356;2023-02-28T17:01:27;1.60;;;1.50;;
19907;SDS011;10116;53.112;7.356;2023-02-28T17:03:54;1.90;;;1.67;;
19907;SDS011;10116;53.112;7.356;2023-02-28T17:06:21;1.67;;;1.57;;
19907;SDS011;10116;53.112;7.356;2023-02-28T17:08:49;2.60;;;2.33;;
19907;SDS011;10116;53.112;7.356;2023-02-28T17:11:16;2.43;;;2.23;;
19907;SDS011;10116;53.112;7.356;2023-02-28T17:13:42;3.40;;;2.77;;
19907;SDS011;10116;53.112;7.356;2023-02-28T17:16:13;3.50;;;2.40;;
19907;SDS011;10116;53.112;7.356;2023-02-28T17:18:58;2.83;;;2.47;;
19907;SDS011;10116;53.112;7.356;2023-02-28T17:21:25;2.40;;;2.20;;
19907;SDS011;10116;53.112;7.356;2023-02-28T17:23:50;2.87;;;2.53;;
19907;SDS011;10116;53.112;7.356;2023-02-28T17:26:17;5.63;;;2.80;;
19907;SDS011;10116;53.112;7.356;2023-02-28T17:28:49;3.23;;;2.53;;
19907;SDS011;10116;53.112;7.356;2023-02-28T17:31:16;5.83;;;3.03;;
19907;SDS011;10116;53.112;7.356;2023-02-28T17:33:42;3.60;;;3.03;;